sensor_id;sensor_type;location;lat;lon;timestamp;P1;durP1;ratioP1;P2;durP2;ratioP2
71777;SDS011;59609;52.430;4.668;2023-07-31T00:00:02;9.47;;;3.30;;
71777;SDS011;59609;52.430;4.668;2023-07-31T00:02:28;12.32;;;3.15;;
71777;SDS011;59609;52.430;4.668;2023-07-31T00:04:53;10.40;;;3.23;;
71777;SDS011;59609;52.430;4.668;2023-07-31T00:07:18;13.27;;;3.23;;
71777;SDS011;59609;52.430;4.668;2023-07-31T00:09:44;11.20;;;3.45;;
71777;SDS011;59609;52.430;4.668;2023-07-31T00:12:09;14.17;;;3.50;;
71777;SDS011;59609;52.430;4.668;2023-07-31T00:14:34;9.87;;;3.33;;
71777;SDS011;59609;52.430;4.668;2023-07-31T00:16:59;9.80;;;3.10;;
71777;SDS011;59609;52.430;4.668;2023-07-31T00:19:24;18.10;;;3.83;;
71777;SDS011;59609;52.430;4.668;2023-07-31T00:21:50;13.47;;;3.10;;
71777;SDS011;59609;52.430;4.668;2023-07-31T00:24:15;15.10;;;3.50;;
71777;SDS011;59609;52.430;4.668;2023-07-31T00:26:40;7.60;;;3.40;;
71777;SDS011;59609;52.430;4.668;2023-07-31T00:29:05;9.10;;;3.33;;
71777;SDS011;59609;52.430;4.668;2023-07-31T00:31:31;11.43;;;3.27;;
71777;SDS011;59609;52.430;4.668;2023-07-31T00:33:56;9.45;;;3.40;;
71777;SDS011;59609;52.430;4.668;2023-07-31T00:36:21;16.40;;;4.33;;
71777;SDS011;59609;52.430;4.668;2023-07-31T00:38:46;16.50;;;4.47;;
71777;SDS011;59609;52.430;4.668;2023-07-31T00:41:12;15.83;;;4.50;;
71777;SDS011;59609;52.430;4.668;2023-07-31T00:43:37;17.53;;;5.20;;
71777;SDS011;59609;52.430;4.668;2023-07-31T00:46:02;10.00;;;4.10;;
71777;SDS011;59609;52.430;4.668;2023-07-31T00:48:27;16.33;;;4.53;;
71777;SDS011;59609;52.430;4.668;2023-07-31T00:50:53;18.05;;;4.65;;
71777;SDS011;59609;52.430;4.668;2023-07-31T00:53:18;19.60;;;4.60;;
71777;SDS011;59609;52.430;4.668;2023-07-31T00:55:43;15.48;;;4.90;;
71777;SDS011;59609;52.430;4.668;2023-07-31T00:58:09;17.67;;;4.63;;
71777;SDS011;59609;52.430;4.668;2023-07-31T01:00:35;24.80;;;5.32;;
71777;SDS011;59609;52.430;4.668;2023-07-31T01:03:00;15.73;;;4.23;;
71777;SDS011;59609;52.430;4.668;2023-07-31T01:05:29;17.27;;;4.77;;
71777;SDS011;59609;52.430;4.668;2023-07-31T01:07:57;16.88;;;4.78;;
71777;SDS011;59609;52.430;4.668;2023-07-31T01:10:30;19.70;;;4.80;;
71777;SDS011;59609;52.430;4.668;2023-07-31T01:12:58;24.33;;;5.13;;
71777;SDS011;59609;52.430;4.668;2023-07-31T01:15:24;21.23;;;4.68;;
71777;SDS011;59609;52.430;4.668;2023-07-31T01:17:49;21.17;;;4.87;;
71777;SDS011;59609;52.430;4.668;2023-07-31T01:20:17;22.57;;;5.70;;
71777;SDS011;59609;52.430;4.668;2023-07-31T01:28:13;20.38;;;5.75;;
71777;SDS011;59609;52.430;4.668;2023-07-31T01:33:04;22.05;;;5.90;;
71777;SDS011;59609;52.430;4.668;2023-07-31T01:35:38;21.30;;;5.20;;
71777;SDS011;59609;52.430;4.668;2023-07-31T01:38:04;22.05;;;5.47;;
71777;SDS011;59609;52.430;4.668;2023-07-31T01:40:29;19.63;;;5.80;;
71777;SDS011;59609;52.430;4.668;2023-07-31T01:42:55;24.00;;;6.00;;
71777;SDS011;59609;52.430;4.668;2023-07-31T01:45:20;18.63;;;5.20;;
71777;SDS011;59609;52.430;4.668;2023-07-31T01:47:45;18.90;;;5.07;;
71777;SDS011;59609;52.430;4.668;2023-07-31T01:50:11;21.88;;;5.40;;
71777;SDS011;59609;52.430;4.668;2023-07-31T01:52:36;23.37;;;5.30;;
71777;SDS011;59609;52.430;4.668;2023-07-31T01:55:01;16.60;;;4.83;;
71777;SDS011;59609;52.430;4.668;2023-07-31T01:57:26;19.40;;;4.83;;
71777;SDS011;59609;52.430;4.668;2023-07-31T01:59:51;20.40;;;5.03;;
71777;SDS011;59609;52.430;4.668;2023-07-31T02:02:18;21.40;;;5.10;;
71777;SDS011;59609;52.430;4.668;2023-07-31T02:04:43;20.23;;;4.28;;
71777;SDS011;59609;52.430;4.668;2023-07-31T02:07:08;19.60;;;4.43;;
71777;SDS011;59609;52.430;4.668;2023-07-31T02:09:34;18.23;;;4.23;;
71777;SDS011;59609;52.430;4.668;2023-07-31T02:11:59;19.70;;;4.97;;
71777;SDS011;59609;52.430;4.668;2023-07-31T02:14:24;20.45;;;5.57;;
71777;SDS011;59609;52.430;4.668;2023-07-31T02:16:50;20.40;;;5.03;;
71777;SDS011;59609;52.430;4.668;2023-07-31T02:19:15;14.87;;;4.53;;
71777;SDS011;59609;52.430;4.668;2023-07-31T02:21:40;15.97;;;4.03;;
71777;SDS011;59609;52.430;4.668;2023-07-31T02:24:05;20.67;;;4.63;;
71777;SDS011;59609;52.430;4.668;2023-07-31T02:26:31;20.97;;;4.30;;
71777;SDS011;59609;52.430;4.668;2023-07-31T02:28:56;23.47;;;5.13;;
71777;SDS011;59609;52.430;4.668;2023-07-31T02:31:21;17.87;;;5.37;;
71777;SDS011;59609;52.430;4.668;2023-07-31T02:33:46;20.40;;;4.70;;
71777;SDS011;59609;52.430;4.668;2023-07-31T02:36:11;19.40;;;5.03;;
71777;SDS011;59609;52.430;4.668;2023-07-31T02:38:37;16.50;;;4.50;;
71777;SDS011;59609;52.430;4.668;2023-07-31T02:41:02;15.33;;;4.60;;
71777;SDS011;59609;52.430;4.668;2023-07-31T02:43:27;16.57;;;5.27;;
71777;SDS011;59609;52.430;4.668;2023-07-31T02:45:52;21.20;;;4.83;;
71777;SDS011;59609;52.430;4.668;2023-07-31T02:48:18;20.85;;;4.47;;
71777;SDS011;59609;52.430;4.668;2023-07-31T02:50:44;20.85;;;4.80;;
71777;SDS011;59609;52.430;4.668;2023-07-31T02:53:09;18.30;;;4.55;;
71777;SDS011;59609;52.430;4.668;2023-07-31T02:55:34;21.40;;;4.70;;
71777;SDS011;59609;52.430;4.668;2023-07-31T02:57:59;16.97;;;5.23;;
71777;SDS011;59609;52.430;4.668;2023-07-31T03:00:24;21.20;;;5.40;;
71777;SDS011;59609;52.430;4.668;2023-07-31T03:02:50;22.30;;;5.10;;
71777;SDS011;59609;52.430;4.668;2023-07-31T03:05:15;14.90;;;4.67;;
71777;SDS011;59609;52.430;4.668;2023-07-31T03:07:40;15.50;;;4.60;;
71777;SDS011;59609;52.430;4.668;2023-07-31T03:10:05;15.67;;;4.20;;
71777;SDS011;59609;52.430;4.668;2023-07-31T03:12:31;12.50;;;4.50;;
71777;SDS011;59609;52.430;4.668;2023-07-31T03:14:56;19.53;;;5.17;;
71777;SDS011;59609;52.430;4.668;2023-07-31T03:17:21;17.27;;;4.50;;
71777;SDS011;59609;52.430;4.668;2023-07-31T03:19:47;23.50;;;5.07;;
71777;SDS011;59609;52.430;4.668;2023-07-31T03:22:12;16.85;;;4.40;;
71777;SDS011;59609;52.430;4.668;2023-07-31T03:24:37;16.53;;;4.97;;
71777;SDS011;59609;52.430;4.668;2023-07-31T03:27:02;19.90;;;5.27;;
71777;SDS011;59609;52.430;4.668;2023-07-31T03:29:28;21.05;;;5.32;;
71777;SDS011;59609;52.430;4.668;2023-07-31T03:31:53;16.67;;;4.67;;
71777;SDS011;59609;52.430;4.668;2023-07-31T03:34:18;14.35;;;5.20;;
71777;SDS011;59609;52.430;4.668;2023-07-31T03:36:43;22.00;;;4.97;;
71777;SDS011;59609;52.430;4.668;2023-07-31T03:39:09;15.57;;;4.47;;
71777;SDS011;59609;52.430;4.668;2023-07-31T03:41:34;18.67;;;5.67;;
71777;SDS011;59609;52.430;4.668;2023-07-31T03:44:00;16.75;;;5.75;;
71777;SDS011;59609;52.430;4.668;2023-07-31T03:46:25;20.97;;;5.33;;
71777;SDS011;59609;52.430;4.668;2023-07-31T03:48:50;22.55;;;5.10;;
71777;SDS011;59609;52.430;4.668;2023-07-31T03:51:16;25.42;;;4.95;;
71777;SDS011;59609;52.430;4.668;2023-07-31T03:53:42;11.23;;;4.72;;
71777;SDS011;59609;52.430;4.668;2023-07-31T03:56:08;28.40;;;5.47;;
71777;SDS011;59609;52.430;4.668;2023-07-31T03:58:33;18.50;;;4.90;;
71777;SDS011;59609;52.430;4.668;2023-07-31T04:01:00;16.23;;;4.47;;
71777;SDS011;59609;52.430;4.668;2023-07-31T04:03:25;19.95;;;5.57;;
71777;SDS011;59609;52.430;4.668;2023-07-31T04:05:50;21.67;;;5.70;;
71777;SDS011;59609;52.430;4.668;2023-07-31T04:08:15;19.93;;;6.17;;
71777;SDS011;59609;52.430;4.668;2023-07-31T04:10:41;19.33;;;4.90;;
71777;SDS011;59609;52.430;4.668;2023-07-31T04:13:06;19.57;;;4.83;;
71777;SDS011;59609;52.430;4.668;2023-07-31T04:15:31;19.30;;;4.93;;
71777;SDS011;59609;52.430;4.668;2023-07-31T04:17:56;13.93;;;4.30;;
71777;SDS011;59609;52.430;4.668;2023-07-31T04:20:21;18.60;;;4.57;;
71777;SDS011;59609;52.430;4.668;2023-07-31T04:22:47;13.15;;;3.70;;
71777;SDS011;59609;52.430;4.668;2023-07-31T04:25:12;16.23;;;4.20;;
71777;SDS011;59609;52.430;4.668;2023-07-31T04:27:37;12.73;;;3.73;;
71777;SDS011;59609;52.430;4.668;2023-07-31T04:30:03;10.02;;;3.15;;
71777;SDS011;59609;52.430;4.668;2023-07-31T04:32:28;10.30;;;3.35;;
71777;SDS011;59609;52.430;4.668;2023-07-31T04:34:54;7.60;;;2.65;;
71777;SDS011;59609;52.430;4.668;2023-07-31T04:37:19;5.77;;;2.57;;
71777;SDS011;59609;52.430;4.668;2023-07-31T04:39:45;5.83;;;2.60;;
71777;SDS011;59609;52.430;4.668;2023-07-31T04:42:10;6.37;;;2.73;;
71777;SDS011;59609;52.430;4.668;2023-07-31T04:44:35;4.87;;;2.40;;
71777;SDS011;59609;52.430;4.668;2023-07-31T04:47:00;7.63;;;2.50;;
71777;SDS011;59609;52.430;4.668;2023-07-31T04:49:27;5.60;;;2.03;;
71777;SDS011;59609;52.430;4.668;2023-07-31T04:51:52;6.23;;;2.60;;
71777;SDS011;59609;52.430;4.668;2023-07-31T04:54:17;4.50;;;2.20;;
71777;SDS011;59609;52.430;4.668;2023-07-31T04:56:42;2.40;;;1.80;;
71777;SDS011;59609;52.430;4.668;2023-07-31T04:59:07;3.23;;;1.70;;
71777;SDS011;59609;52.430;4.668;2023-07-31T05:01:33;3.53;;;1.90;;
71777;SDS011;59609;52.430;4.668;2023-07-31T05:03:58;5.50;;;1.90;;
71777;SDS011;59609;52.430;4.668;2023-07-31T05:06:23;5.50;;;1.60;;
71777;SDS011;59609;52.430;4.668;2023-07-31T05:08:48;3.03;;;1.87;;
71777;SDS011;59609;52.430;4.668;2023-07-31T05:11:14;6.60;;;1.97;;
71777;SDS011;59609;52.430;4.668;2023-07-31T05:13:39;8.13;;;1.90;;
71777;SDS011;59609;52.430;4.668;2023-07-31T05:16:04;4.13;;;1.83;;
71777;SDS011;59609;52.430;4.668;2023-07-31T05:18:30;11.00;;;2.60;;
71777;SDS011;59609;52.430;4.668;2023-07-31T05:20:55;10.03;;;2.13;;
71777;SDS011;59609;52.430;4.668;2023-07-31T05:23:20;6.70;;;1.70;;
71777;SDS011;59609;52.430;4.668;2023-07-31T05:25:46;7.83;;;1.90;;
71777;SDS011;59609;52.430;4.668;2023-07-31T05:28:11;8.25;;;1.90;;
71777;SDS011;59609;52.430;4.668;2023-07-31T05:30:37;6.00;;;1.85;;
71777;SDS011;59609;52.430;4.668;2023-07-31T05:33:02;7.67;;;2.07;;
71777;SDS011;59609;52.430;4.668;2023-07-31T05:35:27;8.77;;;3.17;;
71777;SDS011;59609;52.430;4.668;2023-07-31T05:37:52;11.37;;;1.83;;
71777;SDS011;59609;52.430;4.668;2023-07-31T05:40:18;7.37;;;5.03;;
71777;SDS011;59609;52.430;4.668;2023-07-31T05:42:43;9.07;;;3.92;;
71777;SDS011;59609;52.430;4.668;2023-07-31T05:45:11;8.07;;;1.77;;
71777;SDS011;59609;52.430;4.668;2023-07-31T05:47:38;8.27;;;2.47;;
71777;SDS011;59609;52.430;4.668;2023-07-31T05:50:03;8.97;;;2.27;;
71777;SDS011;59609;52.430;4.668;2023-07-31T05:52:29;6.18;;;1.77;;
71777;SDS011;59609;52.430;4.668;2023-07-31T05:55:10;6.25;;;2.10;;
71777;SDS011;59609;52.430;4.668;2023-07-31T05:57:35;5.97;;;2.03;;
71777;SDS011;59609;52.430;4.668;2023-07-31T06:00:01;6.72;;;2.13;;
71777;SDS011;59609;52.430;4.668;2023-07-31T06:02:26;6.40;;;2.95;;
71777;SDS011;59609;52.430;4.668;2023-07-31T06:04:51;12.73;;;3.80;;
71777;SDS011;59609;52.430;4.668;2023-07-31T06:07:17;9.10;;;4.33;;
71777;SDS011;59609;52.430;4.668;2023-07-31T06:09:42;11.82;;;5.78;;
71777;SDS011;59609;52.430;4.668;2023-07-31T06:12:07;4.13;;;2.10;;
71777;SDS011;59609;52.430;4.668;2023-07-31T06:14:33;9.95;;;2.55;;
71777;SDS011;59609;52.430;4.668;2023-07-31T06:16:58;11.85;;;5.20;;
71777;SDS011;59609;52.430;4.668;2023-07-31T06:19:23;16.67;;;5.60;;
71777;SDS011;59609;52.430;4.668;2023-07-31T06:21:48;15.07;;;6.72;;
71777;SDS011;59609;52.430;4.668;2023-07-31T06:24:14;14.70;;;6.57;;
71777;SDS011;59609;52.430;4.668;2023-07-31T06:26:43;14.38;;;6.35;;
71777;SDS011;59609;52.430;4.668;2023-07-31T06:29:09;13.93;;;6.30;;
71777;SDS011;59609;52.430;4.668;2023-07-31T06:31:35;17.55;;;5.50;;
71777;SDS011;59609;52.430;4.668;2023-07-31T06:34:00;16.63;;;6.57;;
71777;SDS011;59609;52.430;4.668;2023-07-31T06:36:25;12.03;;;3.57;;
71777;SDS011;59609;52.430;4.668;2023-07-31T06:38:50;17.60;;;6.50;;
71777;SDS011;59609;52.430;4.668;2023-07-31T06:41:16;16.07;;;5.60;;
71777;SDS011;59609;52.430;4.668;2023-07-31T06:43:41;16.27;;;6.23;;
71777;SDS011;59609;52.430;4.668;2023-07-31T06:46:06;17.53;;;6.50;;
71777;SDS011;59609;52.430;4.668;2023-07-31T06:48:32;18.77;;;7.30;;
71777;SDS011;59609;52.430;4.668;2023-07-31T06:50:57;16.05;;;7.25;;
71777;SDS011;59609;52.430;4.668;2023-07-31T06:53:23;12.00;;;6.47;;
71777;SDS011;59609;52.430;4.668;2023-07-31T06:55:48;11.63;;;6.03;;
71777;SDS011;59609;52.430;4.668;2023-07-31T06:58:13;11.50;;;5.63;;
71777;SDS011;59609;52.430;4.668;2023-07-31T07:00:38;16.50;;;5.93;;
71777;SDS011;59609;52.430;4.668;2023-07-31T07:03:04;15.60;;;6.18;;
71777;SDS011;59609;52.430;4.668;2023-07-31T07:05:29;9.85;;;6.20;;
71777;SDS011;59609;52.430;4.668;2023-07-31T07:07:54;14.47;;;6.83;;
71777;SDS011;59609;52.430;4.668;2023-07-31T07:10:20;9.25;;;6.13;;
71777;SDS011;59609;52.430;4.668;2023-07-31T07:12:46;10.07;;;5.07;;
71777;SDS011;59609;52.430;4.668;2023-07-31T07:15:11;13.35;;;6.50;;
71777;SDS011;59609;52.430;4.668;2023-07-31T07:17:36;14.82;;;7.28;;
71777;SDS011;59609;52.430;4.668;2023-07-31T07:20:02;20.15;;;6.75;;
71777;SDS011;59609;52.430;4.668;2023-07-31T07:22:28;14.07;;;6.85;;
71777;SDS011;59609;52.430;4.668;2023-07-31T07:24:53;17.15;;;7.63;;
71777;SDS011;59609;52.430;4.668;2023-07-31T07:27:19;13.93;;;6.63;;
71777;SDS011;59609;52.430;4.668;2023-07-31T07:29:45;15.50;;;6.82;;
71777;SDS011;59609;52.430;4.668;2023-07-31T07:32:10;11.35;;;6.68;;
71777;SDS011;59609;52.430;4.668;2023-07-31T07:34:36;17.73;;;7.05;;
71777;SDS011;59609;52.430;4.668;2023-07-31T07:37:02;14.43;;;7.20;;
71777;SDS011;59609;52.430;4.668;2023-07-31T07:39:28;13.87;;;6.77;;
71777;SDS011;59609;52.430;4.668;2023-07-31T07:41:53;19.73;;;7.63;;
71777;SDS011;59609;52.430;4.668;2023-07-31T07:44:19;15.48;;;7.90;;
71777;SDS011;59609;52.430;4.668;2023-07-31T07:46:44;13.03;;;7.00;;
71777;SDS011;59609;52.430;4.668;2023-07-31T07:49:09;17.57;;;7.57;;
71777;SDS011;59609;52.430;4.668;2023-07-31T07:51:34;18.87;;;7.63;;
71777;SDS011;59609;52.430;4.668;2023-07-31T07:54:00;16.67;;;8.07;;
71777;SDS011;59609;52.430;4.668;2023-07-31T07:56:26;11.05;;;7.72;;
71777;SDS011;59609;52.430;4.668;2023-07-31T07:58:51;14.75;;;7.60;;
71777;SDS011;59609;52.430;4.668;2023-07-31T08:01:16;16.83;;;8.07;;
71777;SDS011;59609;52.430;4.668;2023-07-31T08:03:42;13.57;;;7.13;;
71777;SDS011;59609;52.430;4.668;2023-07-31T08:06:07;14.07;;;7.63;;
71777;SDS011;59609;52.430;4.668;2023-07-31T08:08:34;13.80;;;7.80;;
71777;SDS011;59609;52.430;4.668;2023-07-31T08:10:59;11.10;;;8.38;;
71777;SDS011;59609;52.430;4.668;2023-07-31T08:13:24;19.17;;;8.43;;
71777;SDS011;59609;52.430;4.668;2023-07-31T08:15:49;12.83;;;7.27;;
71777;SDS011;59609;52.430;4.668;2023-07-31T08:18:15;12.33;;;7.87;;
71777;SDS011;59609;52.430;4.668;2023-07-31T08:20:42;16.33;;;7.82;;
71777;SDS011;59609;52.430;4.668;2023-07-31T08:23:07;10.00;;;7.33;;
71777;SDS011;59609;52.430;4.668;2023-07-31T08:25:34;10.48;;;6.75;;
71777;SDS011;59609;52.430;4.668;2023-07-31T08:27:59;11.23;;;7.38;;
71777;SDS011;59609;52.430;4.668;2023-07-31T08:30:24;13.00;;;7.37;;
71777;SDS011;59609;52.430;4.668;2023-07-31T08:32:50;14.73;;;7.60;;
71777;SDS011;59609;52.430;4.668;2023-07-31T08:35:15;12.13;;;8.18;;
71777;SDS011;59609;52.430;4.668;2023-07-31T08:37:40;17.70;;;8.10;;
71777;SDS011;59609;52.430;4.668;2023-07-31T08:40:06;15.27;;;7.73;;
71777;SDS011;59609;52.430;4.668;2023-07-31T08:42:31;16.25;;;8.60;;
71777;SDS011;59609;52.430;4.668;2023-07-31T08:44:57;20.88;;;6.80;;
71777;SDS011;59609;52.430;4.668;2023-07-31T08:47:22;14.20;;;6.28;;
71777;SDS011;59609;52.430;4.668;2023-07-31T08:49:48;14.40;;;7.28;;
71777;SDS011;59609;52.430;4.668;2023-07-31T08:52:14;21.48;;;8.68;;
71777;SDS011;59609;52.430;4.668;2023-07-31T08:54:39;13.82;;;8.10;;
71777;SDS011;59609;52.430;4.668;2023-07-31T08:57:05;14.20;;;7.32;;
71777;SDS011;59609;52.430;4.668;2023-07-31T08:59:31;18.05;;;6.85;;
71777;SDS011;59609;52.430;4.668;2023-07-31T09:01:57;18.40;;;8.30;;
71777;SDS011;59609;52.430;4.668;2023-07-31T09:04:24;17.23;;;7.80;;
71777;SDS011;59609;52.430;4.668;2023-07-31T09:06:50;15.27;;;7.60;;
71777;SDS011;59609;52.430;4.668;2023-07-31T09:09:18;15.20;;;7.25;;
71777;SDS011;59609;52.430;4.668;2023-07-31T09:11:45;16.77;;;8.30;;
71777;SDS011;59609;52.430;4.668;2023-07-31T09:14:11;17.75;;;7.35;;
71777;SDS011;59609;52.430;4.668;2023-07-31T09:16:50;20.40;;;7.85;;
71777;SDS011;59609;52.430;4.668;2023-07-31T09:19:15;14.70;;;7.57;;
71777;SDS011;59609;52.430;4.668;2023-07-31T09:21:49;14.52;;;6.93;;
71777;SDS011;59609;52.430;4.668;2023-07-31T09:24:24;15.07;;;7.50;;
71777;SDS011;59609;52.430;4.668;2023-07-31T09:26:49;13.77;;;6.85;;
71777;SDS011;59609;52.430;4.668;2023-07-31T09:29:18;16.17;;;7.70;;
71777;SDS011;59609;52.430;4.668;2023-07-31T09:31:44;10.18;;;6.90;;
71777;SDS011;59609;52.430;4.668;2023-07-31T09:34:10;15.23;;;7.50;;
71777;SDS011;59609;52.430;4.668;2023-07-31T09:36:46;16.45;;;7.60;;
71777;SDS011;59609;52.430;4.668;2023-07-31T09:39:11;14.20;;;5.53;;
71777;SDS011;59609;52.430;4.668;2023-07-31T09:41:41;15.05;;;5.82;;
71777;SDS011;59609;52.430;4.668;2023-07-31T09:44:07;14.52;;;5.10;;
71777;SDS011;59609;52.430;4.668;2023-07-31T09:46:33;13.87;;;6.97;;
71777;SDS011;59609;52.430;4.668;2023-07-31T09:49:09;12.10;;;6.82;;
71777;SDS011;59609;52.430;4.668;2023-07-31T09:51:35;11.82;;;5.47;;
71777;SDS011;59609;52.430;4.668;2023-07-31T09:54:03;10.88;;;6.47;;
71777;SDS011;59609;52.430;4.668;2023-07-31T09:56:29;13.85;;;6.93;;
71777;SDS011;59609;52.430;4.668;2023-07-31T09:58:55;15.65;;;7.15;;
71777;SDS011;59609;52.430;4.668;2023-07-31T10:01:20;13.27;;;6.63;;
71777;SDS011;59609;52.430;4.668;2023-07-31T10:03:46;10.98;;;6.93;;
71777;SDS011;59609;52.430;4.668;2023-07-31T10:06:11;10.90;;;6.65;;
71777;SDS011;59609;52.430;4.668;2023-07-31T10:08:37;15.32;;;6.70;;
71777;SDS011;59609;52.430;4.668;2023-07-31T10:11:02;12.70;;;6.25;;
71777;SDS011;59609;52.430;4.668;2023-07-31T10:13:29;16.55;;;6.85;;
71777;SDS011;59609;52.430;4.668;2023-07-31T10:15:56;12.95;;;6.50;;
71777;SDS011;59609;52.430;4.668;2023-07-31T10:20:48;8.35;;;5.95;;
71777;SDS011;59609;52.430;4.668;2023-07-31T10:23:14;15.98;;;6.80;;
71777;SDS011;59609;52.430;4.668;2023-07-31T10:25:39;13.60;;;6.15;;
71777;SDS011;59609;52.430;4.668;2023-07-31T10:28:04;14.63;;;5.28;;
71777;SDS011;59609;52.430;4.668;2023-07-31T10:30:31;13.73;;;5.72;;
71777;SDS011;59609;52.430;4.668;2023-07-31T10:32:57;13.02;;;6.05;;
71777;SDS011;59609;52.430;4.668;2023-07-31T10:35:23;18.08;;;7.10;;
71777;SDS011;59609;52.430;4.668;2023-07-31T10:37:48;14.90;;;5.95;;
71777;SDS011;59609;52.430;4.668;2023-07-31T10:40:18;15.93;;;5.50;;
71777;SDS011;59609;52.430;4.668;2023-07-31T10:42:46;12.38;;;5.10;;
71777;SDS011;59609;52.430;4.668;2023-07-31T10:45:12;13.75;;;5.32;;
71777;SDS011;59609;52.430;4.668;2023-07-31T10:47:38;11.35;;;5.75;;
71777;SDS011;59609;52.430;4.668;2023-07-31T10:50:12;12.15;;;5.55;;
71777;SDS011;59609;52.430;4.668;2023-07-31T10:52:37;16.58;;;5.60;;
71777;SDS011;59609;52.430;4.668;2023-07-31T10:55:16;17.80;;;6.22;;
71777;SDS011;59609;52.430;4.668;2023-07-31T10:57:44;13.75;;;5.97;;
71777;SDS011;59609;52.430;4.668;2023-07-31T11:03:02;9.50;;;5.72;;
71777;SDS011;59609;52.430;4.668;2023-07-31T11:08:23;19.63;;;7.30;;
71777;SDS011;59609;52.430;4.668;2023-07-31T11:11:11;13.85;;;6.13;;
71777;SDS011;59609;52.430;4.668;2023-07-31T11:16:06;15.40;;;5.63;;
71777;SDS011;59609;52.430;4.668;2023-07-31T11:18:32;10.88;;;5.88;;
71777;SDS011;59609;52.430;4.668;2023-07-31T11:20:57;14.38;;;5.70;;
71777;SDS011;59609;52.430;4.668;2023-07-31T11:23:23;12.17;;;4.73;;
71777;SDS011;59609;52.430;4.668;2023-07-31T11:25:48;12.75;;;5.03;;
71777;SDS011;59609;52.430;4.668;2023-07-31T11:28:15;12.68;;;4.75;;
71777;SDS011;59609;52.430;4.668;2023-07-31T11:30:41;11.40;;;5.05;;
71777;SDS011;59609;52.430;4.668;2023-07-31T11:33:06;11.57;;;4.10;;
71777;SDS011;59609;52.430;4.668;2023-07-31T11:35:32;9.98;;;4.15;;
71777;SDS011;59609;52.430;4.668;2023-07-31T11:37:58;9.30;;;4.00;;
71777;SDS011;59609;52.430;4.668;2023-07-31T11:40:24;13.27;;;4.95;;
71777;SDS011;59609;52.430;4.668;2023-07-31T11:42:54;13.35;;;4.40;;
71777;SDS011;59609;52.430;4.668;2023-07-31T11:45:19;10.55;;;4.28;;
71777;SDS011;59609;52.430;4.668;2023-07-31T11:47:45;12.17;;;5.23;;
71777;SDS011;59609;52.430;4.668;2023-07-31T11:50:10;9.70;;;5.03;;
71777;SDS011;59609;52.430;4.668;2023-07-31T11:52:38;10.50;;;5.38;;
71777;SDS011;59609;52.430;4.668;2023-07-31T11:55:04;7.82;;;5.70;;
71777;SDS011;59609;52.430;4.668;2023-07-31T11:57:31;10.95;;;5.57;;
71777;SDS011;59609;52.430;4.668;2023-07-31T11:59:56;12.60;;;4.78;;
71777;SDS011;59609;52.430;4.668;2023-07-31T12:02:22;13.75;;;4.65;;
71777;SDS011;59609;52.430;4.668;2023-07-31T12:04:48;10.52;;;4.80;;
71777;SDS011;59609;52.430;4.668;2023-07-31T12:07:13;9.47;;;4.67;;
71777;SDS011;59609;52.430;4.668;2023-07-31T12:09:38;10.40;;;4.03;;
71777;SDS011;59609;52.430;4.668;2023-07-31T12:12:19;9.45;;;4.72;;
71777;SDS011;59609;52.430;4.668;2023-07-31T12:14:44;10.27;;;4.53;;
71777;SDS011;59609;52.430;4.668;2023-07-31T12:17:09;9.87;;;4.67;;
71777;SDS011;59609;52.430;4.668;2023-07-31T12:19:34;5.37;;;4.00;;
71777;SDS011;59609;52.430;4.668;2023-07-31T12:22:10;12.63;;;4.53;;
71777;SDS011;59609;52.430;4.668;2023-07-31T12:24:36;8.63;;;3.75;;
71777;SDS011;59609;52.430;4.668;2023-07-31T12:27:07;13.45;;;3.75;;
71777;SDS011;59609;52.430;4.668;2023-07-31T12:29:33;7.70;;;3.88;;
71777;SDS011;59609;52.430;4.668;2023-07-31T12:31:59;9.68;;;4.25;;
71777;SDS011;59609;52.430;4.668;2023-07-31T12:34:24;6.03;;;3.00;;
71777;SDS011;59609;52.430;4.668;2023-07-31T12:36:50;8.77;;;2.93;;
71777;SDS011;59609;52.430;4.668;2023-07-31T12:39:17;7.20;;;3.47;;
71777;SDS011;59609;52.430;4.668;2023-07-31T12:41:42;8.30;;;3.88;;
71777;SDS011;59609;52.430;4.668;2023-07-31T12:44:07;10.23;;;3.93;;
71777;SDS011;59609;52.430;4.668;2023-07-31T12:46:33;7.50;;;3.60;;
71777;SDS011;59609;52.430;4.668;2023-07-31T12:48:58;6.67;;;3.50;;
71777;SDS011;59609;52.430;4.668;2023-07-31T12:51:23;7.67;;;3.17;;
71777;SDS011;59609;52.430;4.668;2023-07-31T12:53:48;6.10;;;3.13;;
71777;SDS011;59609;52.430;4.668;2023-07-31T12:56:14;7.90;;;3.73;;
71777;SDS011;59609;52.430;4.668;2023-07-31T12:58:39;8.93;;;3.90;;
71777;SDS011;59609;52.430;4.668;2023-07-31T13:01:04;5.53;;;3.70;;
71777;SDS011;59609;52.430;4.668;2023-07-31T13:03:30;5.53;;;3.47;;
71777;SDS011;59609;52.430;4.668;2023-07-31T13:05:56;5.78;;;3.65;;
71777;SDS011;59609;52.430;4.668;2023-07-31T13:08:21;10.00;;;4.00;;
71777;SDS011;59609;52.430;4.668;2023-07-31T13:10:46;8.60;;;4.17;;
71777;SDS011;59609;52.430;4.668;2023-07-31T13:13:11;6.07;;;3.43;;
71777;SDS011;59609;52.430;4.668;2023-07-31T13:15:37;10.73;;;4.15;;
71777;SDS011;59609;52.430;4.668;2023-07-31T13:18:02;13.30;;;4.10;;
71777;SDS011;59609;52.430;4.668;2023-07-31T13:20:27;6.60;;;2.90;;
71777;SDS011;59609;52.430;4.668;2023-07-31T13:22:52;4.73;;;2.87;;
71777;SDS011;59609;52.430;4.668;2023-07-31T13:25:18;5.77;;;3.53;;
71777;SDS011;59609;52.430;4.668;2023-07-31T13:27:43;9.07;;;4.00;;
71777;SDS011;59609;52.430;4.668;2023-07-31T13:30:08;6.27;;;3.23;;
71777;SDS011;59609;52.430;4.668;2023-07-31T13:32:33;4.88;;;3.10;;
71777;SDS011;59609;52.430;4.668;2023-07-31T13:35:03;8.52;;;3.65;;
71777;SDS011;59609;52.430;4.668;2023-07-31T13:37:28;7.00;;;3.20;;
71777;SDS011;59609;52.430;4.668;2023-07-31T13:39:54;3.57;;;2.90;;
71777;SDS011;59609;52.430;4.668;2023-07-31T13:42:19;3.37;;;2.97;;
71777;SDS011;59609;52.430;4.668;2023-07-31T13:44:44;3.70;;;2.83;;
71777;SDS011;59609;52.430;4.668;2023-07-31T13:47:09;4.90;;;3.00;;
71777;SDS011;59609;52.430;4.668;2023-07-31T13:49:35;8.07;;;3.65;;
71777;SDS011;59609;52.430;4.668;2023-07-31T13:52:01;6.20;;;3.63;;
71777;SDS011;59609;52.430;4.668;2023-07-31T13:54:26;6.85;;;3.28;;
71777;SDS011;59609;52.430;4.668;2023-07-31T13:56:52;5.33;;;3.20;;
71777;SDS011;59609;52.430;4.668;2023-07-31T13:59:17;8.48;;;3.72;;
71777;SDS011;59609;52.430;4.668;2023-07-31T14:01:43;7.95;;;3.30;;
71777;SDS011;59609;52.430;4.668;2023-07-31T14:04:08;8.57;;;4.35;;
71777;SDS011;59609;52.430;4.668;2023-07-31T14:06:33;4.67;;;4.23;;
71777;SDS011;59609;52.430;4.668;2023-07-31T14:08:59;6.05;;;4.55;;
71777;SDS011;59609;52.430;4.668;2023-07-31T14:11:24;6.45;;;4.53;;
71777;SDS011;59609;52.430;4.668;2023-07-31T14:13:50;7.03;;;4.80;;
71777;SDS011;59609;52.430;4.668;2023-07-31T14:16:15;8.50;;;4.50;;
71777;SDS011;59609;52.430;4.668;2023-07-31T14:18:41;13.13;;;6.17;;
71777;SDS011;59609;52.430;4.668;2023-07-31T14:21:06;13.30;;;5.88;;
71777;SDS011;59609;52.430;4.668;2023-07-31T14:23:31;15.57;;;5.27;;
71777;SDS011;59609;52.430;4.668;2023-07-31T14:25:56;11.90;;;5.83;;
71777;SDS011;59609;52.430;4.668;2023-07-31T14:28:22;17.13;;;5.70;;
71777;SDS011;59609;52.430;4.668;2023-07-31T14:30:47;9.93;;;5.40;;
71777;SDS011;59609;52.430;4.668;2023-07-31T14:33:12;9.97;;;5.13;;
71777;SDS011;59609;52.430;4.668;2023-07-31T14:35:37;8.97;;;4.93;;
71777;SDS011;59609;52.430;4.668;2023-07-31T14:38:02;10.77;;;5.40;;
71777;SDS011;59609;52.430;4.668;2023-07-31T14:40:28;8.98;;;4.82;;
71777;SDS011;59609;52.430;4.668;2023-07-31T14:42:53;13.47;;;4.67;;
71777;SDS011;59609;52.430;4.668;2023-07-31T14:45:19;14.47;;;4.80;;
71777;SDS011;59609;52.430;4.668;2023-07-31T14:47:44;8.27;;;4.20;;